createdAt,value
2023-03-17T01:43:17.087Z,1.07
2023-03-17T01:46:32.170Z,1.10
2023-03-17T01:49:30.932Z,0.99
2023-03-17T01:52:15.964Z,0.82
2023-03-17T01:54:59.751Z,0.73
2023-03-17T01:57:37.290Z,0.73
2023-03-17T02:00:16.496Z,0.58
2023-03-17T02:02:53.851Z,0.44
2023-03-17T02:05:28.430Z,0.42
2023-03-17T02:07:57.918Z,0.40
2023-03-17T02:10:35.317Z,0.39
2023-03-17T02:13:06.625Z,0.31
2023-03-17T02:15:42.838Z,0.35
2023-03-17T02:18:12.673Z,0.36
2023-03-17T02:20:40.847Z,0.27
2023-03-17T02:23:11.895Z,0.21
2023-03-17T02:25:45.905Z,0.31
2023-03-17T02:28:23.706Z,0.38
2023-03-17T02:30:53.817Z,0.32
2023-03-17T02:33:42.824Z,0.20
2023-03-17T02:36:22.508Z,0.19
2023-03-17T02:38:53.661Z,0.23
2023-03-17T02:41:23.710Z,0.29
2023-03-17T02:43:54.797Z,0.20
2023-03-17T02:46:24.347Z,0.19
2023-03-17T02:48:55.066Z,0.29
2023-03-17T02:51:23.543Z,0.33
2023-03-17T02:53:52.362Z,0.17
2023-03-17T02:56:21.906Z,0.15
2023-03-17T02:58:51.449Z,0.23
2023-03-17T03:01:21.300Z,0.34
2023-03-17T03:03:49.535Z,0.35
2023-03-17T03:06:18.213Z,0.25
2023-03-17T03:08:48.137Z,0.07
2023-03-17T03:11:17.377Z,-0.05
2023-03-17T03:13:46.717Z,-0.25
2023-03-17T03:16:16.821Z,-0.38
2023-03-17T03:18:45.830Z,-0.40
2023-03-17T03:21:15.549Z,-0.39
2023-03-17T03:23:45.033Z,-0.43
2023-03-17T03:26:14.246Z,-0.48
2023-03-17T03:28:44.229Z,-0.48
2023-03-17T03:31:14.051Z,-0.53
2023-03-17T03:33:46.209Z,-0.59
2023-03-17T03:36:15.089Z,-0.54
2023-03-17T03:38:44.036Z,-0.69
2023-03-17T03:41:33.311Z,-0.68
2023-03-17T03:44:01.774Z,-0.67
2023-03-17T03:46:30.468Z,-0.75
2023-03-17T03:48:59.298Z,-0.85
2023-03-17T03:51:28.417Z,-0.87
2023-03-17T03:53:57.838Z,-0.86
2023-03-17T03:56:27.200Z,-0.87
2023-03-17T03:58:56.667Z,-0.86
2023-03-17T04:01:25.897Z,-0.74
2023-03-17T04:03:54.595Z,-0.67
2023-03-17T04:06:23.090Z,-0.71
2023-03-17T04:08:52.651Z,-0.70
2023-03-17T04:11:21.157Z,-0.79
2023-03-17T04:13:50.493Z,-0.75
2023-03-17T04:16:19.305Z,-0.76
2023-03-17T04:18:47.681Z,-0.85
2023-03-17T04:21:19.065Z,-0.97
2023-03-17T04:23:47.536Z,-1.06
2023-03-17T04:26:17.484Z,-1.19
2023-03-17T04:28:46.042Z,-1.20
2023-03-17T04:31:15.744Z,-1.31
2023-03-17T04:33:44.916Z,-1.35
2023-03-17T04:36:24.112Z,-1.43
2023-03-17T04:38:54.894Z,-1.50
2023-03-17T04:41:24.721Z,-1.47
2023-03-17T04:43:57.951Z,-1.42
2023-03-17T04:46:28.181Z,-1.37
2023-03-17T04:48:59.169Z,-1.38
2023-03-17T04:51:28.463Z,-1.36
2023-03-17T04:53:57.763Z,-1.40
2023-03-17T04:56:28.076Z,-1.40
2023-03-17T04:58:58.560Z,-1.47
2023-03-17T05:01:28.348Z,-1.52
2023-03-17T05:03:57.887Z,-1.59
2023-03-17T05:06:27.748Z,-1.59
2023-03-17T05:08:56.719Z,-1.49
2023-03-17T05:11:28.452Z,-1.50
2023-03-17T05:14:06.540Z,-1.54
2023-03-17T05:16:44.802Z,-1.42
2023-03-17T05:19:13.139Z,-1.36
2023-03-17T05:21:48.810Z,-1.30
2023-03-17T05:24:57.558Z,-1.32
2023-03-17T05:27:41.599Z,-1.19
2023-03-17T05:30:10.572Z,-1.02
2023-03-17T05:32:38.811Z,-0.82
2023-03-17T05:35:07.763Z,-0.63
2023-03-17T05:37:36.336Z,-0.39
2023-03-17T05:40:04.784Z,-0.14
2023-03-17T05:42:32.854Z,0.07
2023-03-17T05:45:00.828Z,0.28
2023-03-17T05:47:28.815Z,0.40
2023-03-17T05:49:56.824Z,0.47
2023-03-17T05:52:25.168Z,0.55
2023-03-17T05:54:55.747Z,0.62
2023-03-17T05:57:23.981Z,0.72
2023-03-17T05:59:52.160Z,0.78
2023-03-17T06:02:21.031Z,0.83
2023-03-17T06:04:49.628Z,0.85
2023-03-17T06:07:17.776Z,0.73
2023-03-17T06:09:45.925Z,0.78
2023-03-17T06:12:13.983Z,0.85
2023-03-17T06:14:42.087Z,0.94
2023-03-17T06:17:10.324Z,1.07
2023-03-17T06:19:38.989Z,1.13
2023-03-17T06:22:12.845Z,1.26
2023-03-17T06:24:43.730Z,1.31
2023-03-17T06:27:14.917Z,1.29
2023-03-17T06:29:43.615Z,1.17
2023-03-17T06:32:20.259Z,1.15
2023-03-17T06:34:49.441Z,1.09
2023-03-17T06:37:17.786Z,1.09
2023-03-17T06:40:11.729Z,1.25
2023-03-17T06:43:20.148Z,1.39
2023-03-17T06:46:24.853Z,1.55
2023-03-17T06:49:54.919Z,1.77
2023-03-17T06:55:56.342Z,1.93
2023-03-17T06:58:25.186Z,1.72
2023-03-17T07:00:54.214Z,1.69
2023-03-17T07:03:23.990Z,1.60
2023-03-17T07:05:52.574Z,1.64
2023-03-17T07:08:22.060Z,1.81
2023-03-17T07:10:58.201Z,2.07
2023-03-17T07:14:38.680Z,2.45
2023-03-17T07:18:34.106Z,2.82
2023-03-17T07:21:16.262Z,3.09
2023-03-17T07:23:45.771Z,3.30
2023-03-17T07:26:15.074Z,3.43
2023-03-17T07:28:44.949Z,3.52
2023-03-17T07:31:15.072Z,3.65
2023-03-17T07:33:45.253Z,3.67
2023-03-17T07:36:16.818Z,3.83
2023-03-17T07:38:46.824Z,4.05
2023-03-17T07:41:18.895Z,3.99
2023-03-17T07:43:49.239Z,4.23
2023-03-17T07:46:19.703Z,4.45
2023-03-17T07:48:50.248Z,4.65
2023-03-17T07:51:25.933Z,4.86
2023-03-17T07:54:03.786Z,5.05
2023-03-17T08:09:47.719Z,5.84
2023-03-17T08:16:03.810Z,6.04
2023-03-17T08:18:32.991Z,6.20
2023-03-17T08:21:02.652Z,6.26
2023-03-17T08:23:33.442Z,6.15
2023-03-17T08:26:04.324Z,6.31
2023-03-17T08:28:34.615Z,6.50
2023-03-17T08:31:12.896Z,6.58
2023-03-17T08:33:43.476Z,7.05
2023-03-17T08:36:22.765Z,7.37
2023-03-17T08:39:02.118Z,7.47
2023-03-17T08:41:31.730Z,7.85
2023-03-17T08:44:22.680Z,8.20
2023-03-17T08:46:54.122Z,8.23
2023-03-17T08:49:23.614Z,8.37
2023-03-17T08:52:25.227Z,8.17
2023-03-17T08:55:01.952Z,8.59
2023-03-17T08:57:32.981Z,8.85
2023-03-17T09:00:02.325Z,9.07
2023-03-17T09:02:30.963Z,9.10
2023-03-17T09:05:16.076Z,9.21
2023-03-17T09:07:50.042Z,9.23
2023-03-17T09:10:35.649Z,9.42
2023-03-17T09:13:04.540Z,9.45
2023-03-17T09:15:34.388Z,9.53
2023-03-17T09:18:03.373Z,9.36
2023-03-17T09:20:33.656Z,9.40
2023-03-17T09:23:11.263Z,9.51
2023-03-17T09:25:42.476Z,9.77
2023-03-17T09:28:14.055Z,10.17
2023-03-17T14:17:25.902Z,16.54
2023-03-17T14:20:51.585Z,16.49
2023-03-17T14:23:41.373Z,16.26
2023-03-17T14:26:31.983Z,14.84
2023-03-17T14:29:47.219Z,14.47
2023-03-17T14:32:35.838Z,14.43
2023-03-17T14:35:21.667Z,14.24
2023-03-17T14:38:25.795Z,14.36
2023-03-17T14:41:14.638Z,14.95
2023-03-17T14:44:03.374Z,14.78
2023-03-17T14:46:41.303Z,14.43
2023-03-17T14:49:19.795Z,13.93
2023-03-17T14:52:15.556Z,13.69
2023-03-17T14:55:26.692Z,13.27
2023-03-17T14:58:48.496Z,13.06
2023-03-17T15:01:54.109Z,12.83
2023-03-17T15:04:25.907Z,12.46
2023-03-17T15:07:07.773Z,11.82
2023-03-17T15:09:41.460Z,11.36
2023-03-17T15:12:19.500Z,10.85
2023-03-17T15:15:06.429Z,10.45
2023-03-17T15:18:07.570Z,9.93
2023-03-17T15:20:38.301Z,9.90
2023-03-17T15:23:42.978Z,9.90
2023-03-17T15:26:25.669Z,9.83
2023-03-17T15:29:01.748Z,9.47
2023-03-17T15:31:52.091Z,9.45
2023-03-17T15:34:42.830Z,9.17
2023-03-17T15:37:24.399Z,9.20
2023-03-17T15:39:57.076Z,9.17
2023-03-17T15:42:36.492Z,8.93
2023-03-17T15:45:09.247Z,8.81
2023-03-17T15:47:41.920Z,8.87
2023-03-17T15:50:33.038Z,8.84
2023-03-17T15:53:29.561Z,8.82
2023-03-17T15:56:03.049Z,8.74
2023-03-17T15:58:32.466Z,8.71
2023-03-17T16:01:01.278Z,8.73
2023-03-17T16:03:33.564Z,8.65
2023-03-17T16:06:04.690Z,8.66
2023-03-17T16:08:34.810Z,8.66
2023-03-17T16:11:03.501Z,8.63
2023-03-17T16:13:31.968Z,8.58
2023-03-17T16:16:24.869Z,8.57
2023-03-17T16:18:54.674Z,8.56
2023-03-17T16:21:24.424Z,8.40
2023-03-17T16:23:55.699Z,8.35
2023-03-17T16:26:25.975Z,8.31
2023-03-17T16:28:54.416Z,8.27
2023-03-17T16:31:29.528Z,8.25
2023-03-17T16:33:58.159Z,8.19
2023-03-17T16:36:28.450Z,8.15
2023-03-17T16:38:57.852Z,8.09
2023-03-17T16:41:27.747Z,7.99
2023-03-17T16:44:02.758Z,7.88
2023-03-17T16:46:35.605Z,7.79
2023-03-17T16:49:07.563Z,7.69
2023-03-17T16:51:40.312Z,7.56
2023-03-17T16:54:12.055Z,7.47
2023-03-17T16:56:52.682Z,7.35
2023-03-17T16:59:34.487Z,7.23
2023-03-17T17:02:05.792Z,7.13
2023-03-17T17:04:42.156Z,7.02
2023-03-17T17:07:12.032Z,6.91
2023-03-17T17:09:44.241Z,6.82
2023-03-17T17:12:13.050Z,6.74
2023-03-17T17:14:42.093Z,6.67
2023-03-17T17:17:13.603Z,6.60
2023-03-17T17:19:43.351Z,6.51
2023-03-17T17:22:12.954Z,6.44
2023-03-17T17:24:42.826Z,6.35
2023-03-17T17:27:18.841Z,6.26
2023-03-17T17:29:48.026Z,6.20
2023-03-17T17:32:19.205Z,6.12
2023-03-17T17:35:04.912Z,6.05
2023-03-17T17:37:57.459Z,5.97
2023-03-17T17:41:10.818Z,5.71
2023-03-17T17:44:20.237Z,5.57
2023-03-17T17:47:32.240Z,5.49
2023-03-17T17:50:23.191Z,5.43
2023-03-17T17:52:51.793Z,5.37
